Terminal Aerodrome Forecast
Issued by NWS Wakefield, VA

Home | Current Version | Previous Version | Text Only | Print | Product List | Glossary On
Versions: 1 2 3 4 5 6 7 8 9 10 11 12 13 14 15 16
000
FTUS41 KAKQ 202100 AAA
TAFSBY
TAF AMD
KSBY 202105Z 2021/2118 21008KT P6SM BKN250
     FM210000 19003KT P6SM OVC120
     FM211300 25007KT P6SM BKN060=

USA.gov is the U.S. government's official web portal to all federal, state and local government web resources and services.